sensor_id;sensor_type;location;lat;lon;timestamp;P1;durP1;ratioP1;P2;durP2;ratioP2
20758;SDS011;10539;53.686;9.158;2022-11-11T00:00:49;7.57;;;3.13;;
20758;SDS011;10539;53.686;9.158;2022-11-11T00:03:22;8.87;;;3.13;;
20758;SDS011;10539;53.686;9.158;2022-11-11T00:05:48;9.80;;;3.53;;
20758;SDS011;10539;53.686;9.158;2022-11-11T00:08:13;10.23;;;3.00;;
20758;SDS011;10539;53.686;9.158;2022-11-11T00:10:39;4.27;;;2.33;;
20758;SDS011;10539;53.686;9.158;2022-11-11T00:13:06;11.23;;;3.67;;
20758;SDS011;10539;53.686;9.158;2022-11-11T00:15:35;9.03;;;2.90;;
20758;SDS011;10539;53.686;9.158;2022-11-11T00:18:02;11.10;;;3.07;;
20758;SDS011;10539;53.686;9.158;2022-11-11T00:20:46;9.47;;;3.00;;
20758;SDS011;10539;53.686;9.158;2022-11-11T00:23:31;10.13;;;2.70;;
20758;SDS011;10539;53.686;9.158;2022-11-11T00:26:15;9.50;;;2.80;;
20758;SDS011;10539;53.686;9.158;2022-11-11T00:28:41;11.77;;;2.60;;
20758;SDS011;10539;53.686;9.158;2022-11-11T00:31:10;8.60;;;3.17;;
20758;SDS011;10539;53.686;9.158;2022-11-11T00:33:38;8.27;;;3.10;;
20758;SDS011;10539;53.686;9.158;2022-11-11T00:36:04;9.97;;;3.10;;
20758;SDS011;10539;53.686;9.158;2022-11-11T00:38:31;9.87;;;2.97;;
20758;SDS011;10539;53.686;9.158;2022-11-11T00:41:14;11.10;;;3.57;;
20758;SDS011;10539;53.686;9.158;2022-11-11T00:43:42;9.40;;;1.80;;
20758;SDS011;10539;53.686;9.158;2022-11-11T00:46:09;9.83;;;3.43;;
20758;SDS011;10539;53.686;9.158;2022-11-11T00:48:53;9.67;;;3.17;;
20758;SDS011;10539;53.686;9.158;2022-11-11T00:51:38;10.50;;;3.30;;
20758;SDS011;10539;53.686;9.158;2022-11-11T00:54:04;8.67;;;2.90;;
20758;SDS011;10539;53.686;9.158;2022-11-11T00:56:30;9.23;;;3.00;;
20758;SDS011;10539;53.686;9.158;2022-11-11T00:58:56;10.77;;;3.20;;
20758;SDS011;10539;53.686;9.158;2022-11-11T01:01:22;9.37;;;3.20;;
20758;SDS011;10539;53.686;9.158;2022-11-11T01:03:48;7.07;;;3.03;;
20758;SDS011;10539;53.686;9.158;2022-11-11T01:06:14;13.30;;;3.40;;
20758;SDS011;10539;53.686;9.158;2022-11-11T01:08:39;11.90;;;3.30;;
20758;SDS011;10539;53.686;9.158;2022-11-11T01:11:13;10.37;;;3.33;;
20758;SDS011;10539;53.686;9.158;2022-11-11T01:13:40;6.50;;;3.03;;
20758;SDS011;10539;53.686;9.158;2022-11-11T01:16:07;11.40;;;3.30;;
20758;SDS011;10539;53.686;9.158;2022-11-11T01:18:35;8.90;;;3.43;;
20758;SDS011;10539;53.686;9.158;2022-11-11T01:21:11;8.83;;;3.53;;
20758;SDS011;10539;53.686;9.158;2022-11-11T01:23:42;12.83;;;3.93;;
20758;SDS011;10539;53.686;9.158;2022-11-11T01:26:14;12.90;;;3.77;;
20758;SDS011;10539;53.686;9.158;2022-11-11T01:28:43;11.73;;;4.17;;
20758;SDS011;10539;53.686;9.158;2022-11-11T01:31:13;10.57;;;3.10;;
20758;SDS011;10539;53.686;9.158;2022-11-11T01:33:40;13.23;;;3.40;;
20758;SDS011;10539;53.686;9.158;2022-11-11T01:36:10;12.50;;;3.40;;
20758;SDS011;10539;53.686;9.158;2022-11-11T01:38:40;12.40;;;3.70;;
20758;SDS011;10539;53.686;9.158;2022-11-11T01:41:06;11.53;;;4.10;;
20758;SDS011;10539;53.686;9.158;2022-11-11T01:43:54;13.60;;;4.03;;
20758;SDS011;10539;53.686;9.158;2022-11-11T01:46:23;15.70;;;4.40;;
20758;SDS011;10539;53.686;9.158;2022-11-11T01:48:58;9.90;;;3.67;;
20758;SDS011;10539;53.686;9.158;2022-11-11T01:54:51;12.07;;;4.00;;
20758;SDS011;10539;53.686;9.158;2022-11-11T01:57:24;14.23;;;3.47;;
20758;SDS011;10539;53.686;9.158;2022-11-11T01:59:57;12.37;;;4.27;;
20758;SDS011;10539;53.686;9.158;2022-11-11T02:03:13;9.40;;;3.90;;
20758;SDS011;10539;53.686;9.158;2022-11-11T02:05:17;8.10;;;3.50;;
20758;SDS011;10539;53.686;9.158;2022-11-11T02:11:02;13.73;;;4.80;;
20758;SDS011;10539;53.686;9.158;2022-11-11T02:13:32;10.60;;;4.30;;
20758;SDS011;10539;53.686;9.158;2022-11-11T02:16:20;10.37;;;3.87;;
20758;SDS011;10539;53.686;9.158;2022-11-11T02:18:46;13.00;;;4.60;;
20758;SDS011;10539;53.686;9.158;2022-11-11T02:21:12;11.17;;;4.37;;
20758;SDS011;10539;53.686;9.158;2022-11-11T02:24:03;12.53;;;4.37;;
20758;SDS011;10539;53.686;9.158;2022-11-11T02:26:35;16.17;;;5.30;;
20758;SDS011;10539;53.686;9.158;2022-11-11T02:29:04;11.80;;;4.60;;
20758;SDS011;10539;53.686;9.158;2022-11-11T02:31:34;13.17;;;4.93;;
20758;SDS011;10539;53.686;9.158;2022-11-11T02:34:00;12.87;;;4.33;;
20758;SDS011;10539;53.686;9.158;2022-11-11T02:36:26;13.80;;;4.13;;
20758;SDS011;10539;53.686;9.158;2022-11-11T02:38:52;11.73;;;4.60;;
20758;SDS011;10539;53.686;9.158;2022-11-11T02:41:18;12.27;;;5.17;;
20758;SDS011;10539;53.686;9.158;2022-11-11T02:44:03;13.20;;;4.60;;
20758;SDS011;10539;53.686;9.158;2022-11-11T02:46:28;8.63;;;4.33;;
20758;SDS011;10539;53.686;9.158;2022-11-11T02:48:57;12.37;;;4.90;;
20758;SDS011;10539;53.686;9.158;2022-11-11T02:51:23;11.73;;;4.50;;
20758;SDS011;10539;53.686;9.158;2022-11-11T02:53:48;13.03;;;4.73;;
20758;SDS011;10539;53.686;9.158;2022-11-11T02:56:14;13.60;;;4.83;;
20758;SDS011;10539;53.686;9.158;2022-11-11T02:59:00;13.43;;;4.60;;
20758;SDS011;10539;53.686;9.158;2022-11-11T03:01:25;11.30;;;4.53;;
20758;SDS011;10539;53.686;9.158;2022-11-11T03:03:51;11.67;;;4.67;;
20758;SDS011;10539;53.686;9.158;2022-11-11T03:06:17;11.13;;;4.50;;
20758;SDS011;10539;53.686;9.158;2022-11-11T03:08:43;9.53;;;4.77;;
20758;SDS011;10539;53.686;9.158;2022-11-11T03:11:09;13.53;;;4.50;;
20758;SDS011;10539;53.686;9.158;2022-11-11T03:13:34;11.87;;;4.13;;
20758;SDS011;10539;53.686;9.158;2022-11-11T03:16:00;14.23;;;5.53;;
20758;SDS011;10539;53.686;9.158;2022-11-11T03:18:26;15.67;;;5.10;;
20758;SDS011;10539;53.686;9.158;2022-11-11T03:20:51;10.93;;;4.60;;
20758;SDS011;10539;53.686;9.158;2022-11-11T03:23:37;9.63;;;4.53;;
20758;SDS011;10539;53.686;9.158;2022-11-11T03:26:03;10.73;;;4.83;;
20758;SDS011;10539;53.686;9.158;2022-11-11T03:28:29;8.87;;;4.27;;
20758;SDS011;10539;53.686;9.158;2022-11-11T03:30:54;9.73;;;4.70;;
20758;SDS011;10539;53.686;9.158;2022-11-11T03:33:20;16.33;;;5.50;;
20758;SDS011;10539;53.686;9.158;2022-11-11T03:35:46;14.43;;;5.10;;
20758;SDS011;10539;53.686;9.158;2022-11-11T03:38:13;15.10;;;5.07;;
20758;SDS011;10539;53.686;9.158;2022-11-11T03:40:49;11.70;;;5.10;;
20758;SDS011;10539;53.686;9.158;2022-11-11T03:43:17;10.33;;;5.00;;
20758;SDS011;10539;53.686;9.158;2022-11-11T03:45:45;17.20;;;5.60;;
20758;SDS011;10539;53.686;9.158;2022-11-11T03:48:11;16.00;;;4.90;;
20758;SDS011;10539;53.686;9.158;2022-11-11T03:50:37;12.77;;;5.00;;
20758;SDS011;10539;53.686;9.158;2022-11-11T03:53:05;13.67;;;5.23;;
20758;SDS011;10539;53.686;9.158;2022-11-11T03:55:31;13.17;;;4.73;;
20758;SDS011;10539;53.686;9.158;2022-11-11T03:57:57;8.47;;;4.93;;
20758;SDS011;10539;53.686;9.158;2022-11-11T04:00:24;13.47;;;5.17;;
20758;SDS011;10539;53.686;9.158;2022-11-11T04:02:51;13.00;;;4.80;;
20758;SDS011;10539;53.686;9.158;2022-11-11T04:05:48;9.30;;;4.50;;
20758;SDS011;10539;53.686;9.158;2022-11-11T04:08:46;13.93;;;5.43;;
20758;SDS011;10539;53.686;9.158;2022-11-11T04:11:35;12.13;;;5.40;;
20758;SDS011;10539;53.686;9.158;2022-11-11T04:14:07;11.90;;;5.30;;
20758;SDS011;10539;53.686;9.158;2022-11-11T04:16:52;15.13;;;5.63;;
20758;SDS011;10539;53.686;9.158;2022-11-11T04:19:18;13.13;;;5.80;;
20758;SDS011;10539;53.686;9.158;2022-11-11T04:22:03;10.80;;;5.37;;
20758;SDS011;10539;53.686;9.158;2022-11-11T04:24:28;14.13;;;5.73;;
20758;SDS011;10539;53.686;9.158;2022-11-11T04:27:14;13.57;;;5.67;;
20758;SDS011;10539;53.686;9.158;2022-11-11T04:29:41;12.87;;;5.83;;
20758;SDS011;10539;53.686;9.158;2022-11-11T04:32:07;16.30;;;5.83;;
20758;SDS011;10539;53.686;9.158;2022-11-11T04:34:56;15.03;;;6.23;;
20758;SDS011;10539;53.686;9.158;2022-11-11T04:37:24;11.47;;;6.13;;
20758;SDS011;10539;53.686;9.158;2022-11-11T04:39:51;12.23;;;6.20;;
20758;SDS011;10539;53.686;9.158;2022-11-11T04:42:36;15.73;;;6.20;;
20758;SDS011;10539;53.686;9.158;2022-11-11T04:45:04;14.37;;;6.17;;
20758;SDS011;10539;53.686;9.158;2022-11-11T04:50:23;14.37;;;6.93;;
20758;SDS011;10539;53.686;9.158;2022-11-11T04:52:50;14.13;;;6.00;;
20758;SDS011;10539;53.686;9.158;2022-11-11T04:55:15;14.53;;;7.13;;
20758;SDS011;10539;53.686;9.158;2022-11-11T04:58:00;15.23;;;6.67;;
20758;SDS011;10539;53.686;9.158;2022-11-11T05:00:26;18.83;;;7.27;;
20758;SDS011;10539;53.686;9.158;2022-11-11T05:02:55;19.57;;;7.07;;
20758;SDS011;10539;53.686;9.158;2022-11-11T05:05:43;16.10;;;6.93;;
20758;SDS011;10539;53.686;9.158;2022-11-11T05:08:28;13.10;;;6.70;;
20758;SDS011;10539;53.686;9.158;2022-11-11T05:11:13;13.30;;;6.10;;
20758;SDS011;10539;53.686;9.158;2022-11-11T05:13:39;17.80;;;7.07;;
20758;SDS011;10539;53.686;9.158;2022-11-11T05:16:25;16.53;;;7.13;;
20758;SDS011;10539;53.686;9.158;2022-11-11T05:19:11;19.10;;;7.27;;
20758;SDS011;10539;53.686;9.158;2022-11-11T05:22:00;16.40;;;6.50;;
20758;SDS011;10539;53.686;9.158;2022-11-11T05:24:35;21.73;;;7.67;;
20758;SDS011;10539;53.686;9.158;2022-11-11T05:27:19;16.03;;;7.07;;
20758;SDS011;10539;53.686;9.158;2022-11-11T05:29:45;18.63;;;7.60;;
20758;SDS011;10539;53.686;9.158;2022-11-11T05:32:18;14.60;;;8.17;;
20758;SDS011;10539;53.686;9.158;2022-11-11T05:34:45;14.67;;;7.33;;
20758;SDS011;10539;53.686;9.158;2022-11-11T05:37:11;18.33;;;7.87;;
20758;SDS011;10539;53.686;9.158;2022-11-11T05:39:37;17.80;;;8.20;;
20758;SDS011;10539;53.686;9.158;2022-11-11T05:42:03;17.80;;;8.57;;
20758;SDS011;10539;53.686;9.158;2022-11-11T05:44:29;15.73;;;7.80;;
20758;SDS011;10539;53.686;9.158;2022-11-11T05:46:54;15.20;;;8.03;;
20758;SDS011;10539;53.686;9.158;2022-11-11T05:49:20;19.13;;;9.03;;
20758;SDS011;10539;53.686;9.158;2022-11-11T05:51:46;14.73;;;8.03;;
20758;SDS011;10539;53.686;9.158;2022-11-11T05:54:13;14.80;;;9.37;;
20758;SDS011;10539;53.686;9.158;2022-11-11T05:56:39;18.40;;;8.93;;
20758;SDS011;10539;53.686;9.158;2022-11-11T05:59:05;17.07;;;8.90;;
20758;SDS011;10539;53.686;9.158;2022-11-11T06:01:31;19.00;;;9.80;;
20758;SDS011;10539;53.686;9.158;2022-11-11T06:03:58;19.80;;;8.43;;
20758;SDS011;10539;53.686;9.158;2022-11-11T06:06:23;21.87;;;9.33;;
20758;SDS011;10539;53.686;9.158;2022-11-11T06:08:49;17.53;;;8.63;;
20758;SDS011;10539;53.686;9.158;2022-11-11T06:11:15;19.43;;;9.10;;
20758;SDS011;10539;53.686;9.158;2022-11-11T06:13:41;19.67;;;9.50;;
20758;SDS011;10539;53.686;9.158;2022-11-11T06:16:07;19.00;;;10.10;;
20758;SDS011;10539;53.686;9.158;2022-11-11T06:18:33;18.53;;;10.20;;
20758;SDS011;10539;53.686;9.158;2022-11-11T06:20:59;18.27;;;9.77;;
20758;SDS011;10539;53.686;9.158;2022-11-11T06:23:26;23.67;;;9.70;;
20758;SDS011;10539;53.686;9.158;2022-11-11T06:25:53;18.17;;;9.43;;
20758;SDS011;10539;53.686;9.158;2022-11-11T06:28:38;19.50;;;8.87;;
20758;SDS011;10539;53.686;9.158;2022-11-11T06:31:05;25.27;;;11.23;;
20758;SDS011;10539;53.686;9.158;2022-11-11T06:33:34;18.43;;;9.37;;
20758;SDS011;10539;53.686;9.158;2022-11-11T06:36:01;22.87;;;10.40;;
20758;SDS011;10539;53.686;9.158;2022-11-11T06:38:27;21.47;;;9.83;;
20758;SDS011;10539;53.686;9.158;2022-11-11T06:40:53;25.83;;;10.40;;
20758;SDS011;10539;53.686;9.158;2022-11-11T06:43:19;19.77;;;10.23;;
20758;SDS011;10539;53.686;9.158;2022-11-11T06:45:45;22.03;;;10.77;;
20758;SDS011;10539;53.686;9.158;2022-11-11T06:48:15;23.53;;;10.10;;
20758;SDS011;10539;53.686;9.158;2022-11-11T06:50:41;22.27;;;10.87;;
20758;SDS011;10539;53.686;9.158;2022-11-11T06:53:11;24.43;;;11.00;;
20758;SDS011;10539;53.686;9.158;2022-11-11T06:55:38;21.13;;;10.70;;
20758;SDS011;10539;53.686;9.158;2022-11-11T06:58:05;22.93;;;10.43;;
20758;SDS011;10539;53.686;9.158;2022-11-11T07:00:32;21.60;;;11.23;;
20758;SDS011;10539;53.686;9.158;2022-11-11T07:03:00;19.87;;;11.43;;
20758;SDS011;10539;53.686;9.158;2022-11-11T07:05:26;21.60;;;11.37;;
20758;SDS011;10539;53.686;9.158;2022-11-11T07:07:52;23.73;;;10.90;;
20758;SDS011;10539;53.686;9.158;2022-11-11T07:10:17;29.30;;;10.80;;
20758;SDS011;10539;53.686;9.158;2022-11-11T07:12:43;22.83;;;11.33;;
20758;SDS011;10539;53.686;9.158;2022-11-11T07:15:09;23.83;;;11.87;;
20758;SDS011;10539;53.686;9.158;2022-11-11T07:17:35;20.43;;;11.27;;
20758;SDS011;10539;53.686;9.158;2022-11-11T07:20:01;20.90;;;10.63;;
20758;SDS011;10539;53.686;9.158;2022-11-11T07:22:27;29.47;;;12.27;;
20758;SDS011;10539;53.686;9.158;2022-11-11T07:24:53;29.87;;;12.40;;
20758;SDS011;10539;53.686;9.158;2022-11-11T07:27:19;23.67;;;11.73;;
20758;SDS011;10539;53.686;9.158;2022-11-11T07:29:44;26.40;;;11.63;;
20758;SDS011;10539;53.686;9.158;2022-11-11T07:32:13;19.77;;;11.40;;
20758;SDS011;10539;53.686;9.158;2022-11-11T07:34:41;27.87;;;12.40;;
20758;SDS011;10539;53.686;9.158;2022-11-11T07:37:08;20.17;;;10.63;;
20758;SDS011;10539;53.686;9.158;2022-11-11T07:39:34;24.50;;;12.27;;
20758;SDS011;10539;53.686;9.158;2022-11-11T07:42:00;23.57;;;11.63;;
20758;SDS011;10539;53.686;9.158;2022-11-11T07:44:26;28.70;;;13.13;;
20758;SDS011;10539;53.686;9.158;2022-11-11T07:46:51;24.83;;;12.47;;
20758;SDS011;10539;53.686;9.158;2022-11-11T07:49:17;28.53;;;12.43;;
20758;SDS011;10539;53.686;9.158;2022-11-11T07:51:43;30.37;;;12.90;;
20758;SDS011;10539;53.686;9.158;2022-11-11T07:54:09;22.93;;;11.83;;
20758;SDS011;10539;53.686;9.158;2022-11-11T07:56:34;28.37;;;12.17;;
20758;SDS011;10539;53.686;9.158;2022-11-11T07:59:00;26.47;;;12.13;;
20758;SDS011;10539;53.686;9.158;2022-11-11T08:01:26;25.57;;;13.13;;
20758;SDS011;10539;53.686;9.158;2022-11-11T08:03:52;30.57;;;12.50;;
20758;SDS011;10539;53.686;9.158;2022-11-11T08:06:18;25.37;;;11.93;;
20758;SDS011;10539;53.686;9.158;2022-11-11T08:08:45;25.33;;;12.90;;
20758;SDS011;10539;53.686;9.158;2022-11-11T08:11:11;28.97;;;14.53;;
20758;SDS011;10539;53.686;9.158;2022-11-11T08:13:37;25.73;;;11.93;;
20758;SDS011;10539;53.686;9.158;2022-11-11T08:16:07;29.03;;;13.37;;
20758;SDS011;10539;53.686;9.158;2022-11-11T08:18:33;23.20;;;12.53;;
20758;SDS011;10539;53.686;9.158;2022-11-11T08:20:59;25.13;;;13.33;;
20758;SDS011;10539;53.686;9.158;2022-11-11T08:23:26;27.50;;;13.53;;
20758;SDS011;10539;53.686;9.158;2022-11-11T08:25:59;26.30;;;13.07;;
20758;SDS011;10539;53.686;9.158;2022-11-11T08:28:27;28.70;;;14.30;;
20758;SDS011;10539;53.686;9.158;2022-11-11T08:30:54;34.20;;;14.30;;
20758;SDS011;10539;53.686;9.158;2022-11-11T08:33:22;30.40;;;13.67;;
20758;SDS011;10539;53.686;9.158;2022-11-11T08:35:48;32.03;;;14.23;;
20758;SDS011;10539;53.686;9.158;2022-11-11T08:38:14;24.53;;;13.53;;
20758;SDS011;10539;53.686;9.158;2022-11-11T08:40:41;25.50;;;12.97;;
20758;SDS011;10539;53.686;9.158;2022-11-11T08:43:07;31.03;;;15.00;;
20758;SDS011;10539;53.686;9.158;2022-11-11T08:45:32;33.10;;;14.17;;
20758;SDS011;10539;53.686;9.158;2022-11-11T08:47:58;34.43;;;14.97;;
20758;SDS011;10539;53.686;9.158;2022-11-11T08:50:24;29.53;;;14.13;;
20758;SDS011;10539;53.686;9.158;2022-11-11T08:52:50;33.07;;;14.13;;
20758;SDS011;10539;53.686;9.158;2022-11-11T08:55:16;32.67;;;13.90;;
20758;SDS011;10539;53.686;9.158;2022-11-11T08:57:43;34.43;;;14.37;;
20758;SDS011;10539;53.686;9.158;2022-11-11T09:00:09;27.93;;;13.27;;
20758;SDS011;10539;53.686;9.158;2022-11-11T09:02:36;29.07;;;13.53;;
20758;SDS011;10539;53.686;9.158;2022-11-11T09:05:03;33.00;;;14.83;;
20758;SDS011;10539;53.686;9.158;2022-11-11T09:07:29;27.10;;;14.10;;
20758;SDS011;10539;53.686;9.158;2022-11-11T09:09:55;27.10;;;13.63;;
20758;SDS011;10539;53.686;9.158;2022-11-11T09:12:21;31.97;;;14.43;;
20758;SDS011;10539;53.686;9.158;2022-11-11T09:14:46;26.50;;;14.07;;
20758;SDS011;10539;53.686;9.158;2022-11-11T09:17:14;30.43;;;14.03;;
20758;SDS011;10539;53.686;9.158;2022-11-11T09:19:44;25.00;;;13.30;;
20758;SDS011;10539;53.686;9.158;2022-11-11T09:22:10;28.40;;;13.40;;
20758;SDS011;10539;53.686;9.158;2022-11-11T09:24:36;30.63;;;13.90;;
20758;SDS011;10539;53.686;9.158;2022-11-11T09:27:01;25.13;;;13.47;;
20758;SDS011;10539;53.686;9.158;2022-11-11T09:29:27;28.87;;;13.93;;
20758;SDS011;10539;53.686;9.158;2022-11-11T09:31:53;26.43;;;13.10;;
20758;SDS011;10539;53.686;9.158;2022-11-11T09:34:18;30.97;;;13.83;;
20758;SDS011;10539;53.686;9.158;2022-11-11T09:36:44;27.03;;;13.47;;
20758;SDS011;10539;53.686;9.158;2022-11-11T09:39:09;30.13;;;13.57;;
20758;SDS011;10539;53.686;9.158;2022-11-11T09:41:57;31.87;;;13.27;;
20758;SDS011;10539;53.686;9.158;2022-11-11T09:44:34;24.70;;;12.50;;
20758;SDS011;10539;53.686;9.158;2022-11-11T09:49:59;26.60;;;11.60;;
20758;SDS011;10539;53.686;9.158;2022-11-11T09:52:34;24.57;;;13.43;;
20758;SDS011;10539;53.686;9.158;2022-11-11T09:55:03;20.83;;;11.30;;
20758;SDS011;10539;53.686;9.158;2022-11-11T09:57:38;19.67;;;11.40;;
20758;SDS011;10539;53.686;9.158;2022-11-11T10:00:21;20.23;;;11.40;;
20758;SDS011;10539;53.686;9.158;2022-11-11T10:02:54;25.90;;;11.17;;
20758;SDS011;10539;53.686;9.158;2022-11-11T10:05:26;21.40;;;10.37;;
20758;SDS011;10539;53.686;9.158;2022-11-11T10:08:13;19.53;;;10.37;;
20758;SDS011;10539;53.686;9.158;2022-11-11T10:10:43;21.40;;;11.03;;
20758;SDS011;10539;53.686;9.158;2022-11-11T10:13:22;25.13;;;11.60;;
20758;SDS011;10539;53.686;9.158;2022-11-11T10:15:56;20.17;;;10.03;;
20758;SDS011;10539;53.686;9.158;2022-11-11T10:21:57;22.27;;;11.40;;
20758;SDS011;10539;53.686;9.158;2022-11-11T10:24:34;21.23;;;10.43;;
20758;SDS011;10539;53.686;9.158;2022-11-11T10:27:09;18.13;;;9.33;;
20758;SDS011;10539;53.686;9.158;2022-11-11T10:29:41;20.77;;;9.83;;
20758;SDS011;10539;53.686;9.158;2022-11-11T10:32:15;19.60;;;9.60;;
20758;SDS011;10539;53.686;9.158;2022-11-11T10:34:42;18.20;;;10.13;;
20758;SDS011;10539;53.686;9.158;2022-11-11T10:37:18;21.40;;;10.13;;
20758;SDS011;10539;53.686;9.158;2022-11-11T10:42:26;18.87;;;9.90;;
20758;SDS011;10539;53.686;9.158;2022-11-11T10:44:57;18.03;;;9.63;;
20758;SDS011;10539;53.686;9.158;2022-11-11T10:47:31;20.27;;;10.20;;
20758;SDS011;10539;53.686;9.158;2022-11-11T10:50:20;20.27;;;10.00;;
20758;SDS011;10539;53.686;9.158;2022-11-11T10:56:08;18.77;;;9.27;;
20758;SDS011;10539;53.686;9.158;2022-11-11T10:59:25;15.97;;;8.97;;
20758;SDS011;10539;53.686;9.158;2022-11-11T11:01:37;17.10;;;8.60;;
20758;SDS011;10539;53.686;9.158;2022-11-11T11:04:17;18.70;;;8.87;;
20758;SDS011;10539;53.686;9.158;2022-11-11T11:07:05;16.60;;;9.03;;
20758;SDS011;10539;53.686;9.158;2022-11-11T11:12:58;18.20;;;9.20;;
20758;SDS011;10539;53.686;9.158;2022-11-11T11:15:26;20.57;;;9.87;;
20758;SDS011;10539;53.686;9.158;2022-11-11T11:17:55;17.57;;;8.47;;
20758;SDS011;10539;53.686;9.158;2022-11-11T11:20:34;17.77;;;9.83;;
20758;SDS011;10539;53.686;9.158;2022-11-11T11:22:59;21.57;;;9.03;;
20758;SDS011;10539;53.686;9.158;2022-11-11T11:25:27;20.03;;;9.17;;
20758;SDS011;10539;53.686;9.158;2022-11-11T11:28:07;16.77;;;8.67;;
20758;SDS011;10539;53.686;9.158;2022-11-11T11:30:34;18.17;;;9.17;;
20758;SDS011;10539;53.686;9.158;2022-11-11T11:33:01;18.73;;;8.73;;
20758;SDS011;10539;53.686;9.158;2022-11-11T11:37:54;18.07;;;8.60;;
20758;SDS011;10539;53.686;9.158;2022-11-11T11:40:19;19.17;;;9.47;;
20758;SDS011;10539;53.686;9.158;2022-11-11T11:42:45;17.20;;;8.73;;
20758;SDS011;10539;53.686;9.158;2022-11-11T11:45:27;17.13;;;9.00;;
20758;SDS011;10539;53.686;9.158;2022-11-11T11:51:10;18.37;;;8.93;;
20758;SDS011;10539;53.686;9.158;2022-11-11T11:53:56;18.23;;;9.40;;
20758;SDS011;10539;53.686;9.158;2022-11-11T11:56:36;21.27;;;8.93;;
20758;SDS011;10539;53.686;9.158;2022-11-11T12:05:10;17.50;;;8.80;;
20758;SDS011;10539;53.686;9.158;2022-11-11T12:13:11;20.13;;;9.13;;
20758;SDS011;10539;53.686;9.158;2022-11-11T12:21:13;16.33;;;8.73;;
20758;SDS011;10539;53.686;9.158;2022-11-11T12:23:54;17.47;;;8.07;;
20758;SDS011;10539;53.686;9.158;2022-11-11T12:26:32;20.17;;;8.70;;
20758;SDS011;10539;53.686;9.158;2022-11-11T12:29:32;14.37;;;8.33;;
20758;SDS011;10539;53.686;9.158;2022-11-11T12:32:53;17.07;;;8.83;;
20758;SDS011;10539;53.686;9.158;2022-11-11T12:40:56;19.20;;;9.57;;
20758;SDS011;10539;53.686;9.158;2022-11-11T12:48:47;17.13;;;9.13;;
20758;SDS011;10539;53.686;9.158;2022-11-11T12:57:14;18.20;;;8.67;;
20758;SDS011;10539;53.686;9.158;2022-11-11T13:05:26;20.37;;;9.33;;
20758;SDS011;10539;53.686;9.158;2022-11-11T13:10:43;20.50;;;10.47;;
20758;SDS011;10539;53.686;9.158;2022-11-11T13:13:27;23.40;;;10.77;;
20758;SDS011;10539;53.686;9.158;2022-11-11T13:16:10;19.90;;;10.80;;
20758;SDS011;10539;53.686;9.158;2022-11-11T13:18:56;24.57;;;11.60;;
20758;SDS011;10539;53.686;9.158;2022-11-11T13:24:08;25.10;;;12.00;;
20758;SDS011;10539;53.686;9.158;2022-11-11T13:26:47;22.53;;;11.23;;
20758;SDS011;10539;53.686;9.158;2022-11-11T13:31:58;25.67;;;12.47;;
20758;SDS011;10539;53.686;9.158;2022-11-11T13:34:28;24.63;;;11.83;;
20758;SDS011;10539;53.686;9.158;2022-11-11T13:36:59;23.40;;;11.33;;
20758;SDS011;10539;53.686;9.158;2022-11-11T13:39:28;22.60;;;11.27;;
20758;SDS011;10539;53.686;9.158;2022-11-11T13:41:56;22.53;;;11.10;;
20758;SDS011;10539;53.686;9.158;2022-11-11T13:44:25;27.83;;;12.37;;
20758;SDS011;10539;53.686;9.158;2022-11-11T13:47:28;19.97;;;10.83;;
20758;SDS011;10539;53.686;9.158;2022-11-11T13:53:03;28.10;;;13.27;;
20758;SDS011;10539;53.686;9.158;2022-11-11T13:55:37;22.53;;;12.00;;
20758;SDS011;10539;53.686;9.158;2022-11-11T13:58:06;20.67;;;11.63;;
20758;SDS011;10539;53.686;9.158;2022-11-11T14:00:58;19.37;;;10.37;;
20758;SDS011;10539;53.686;9.158;2022-11-11T14:13:48;23.67;;;11.60;;
20758;SDS011;10539;53.686;9.158;2022-11-11T14:21:46;23.97;;;11.03;;
20758;SDS011;10539;53.686;9.158;2022-11-11T14:29:34;17.87;;;10.20;;
20758;SDS011;10539;53.686;9.158;2022-11-11T14:32:06;20.50;;;10.57;;
20758;SDS011;10539;53.686;9.158;2022-11-11T14:34:50;22.57;;;11.43;;
20758;SDS011;10539;53.686;9.158;2022-11-11T14:40:38;18.97;;;10.70;;
20758;SDS011;10539;53.686;9.158;2022-11-11T14:46:03;18.00;;;9.97;;
20758;SDS011;10539;53.686;9.158;2022-11-11T14:51:36;17.23;;;9.33;;
20758;SDS011;10539;53.686;9.158;2022-11-11T14:54:03;21.33;;;10.13;;
20758;SDS011;10539;53.686;9.158;2022-11-11T14:56:31;16.07;;;9.17;;
20758;SDS011;10539;53.686;9.158;2022-11-11T14:58:58;18.20;;;9.47;;
20758;SDS011;10539;53.686;9.158;2022-11-11T15:01:30;15.37;;;8.67;;
20758;SDS011;10539;53.686;9.158;2022-11-11T15:03:59;17.93;;;9.83;;
20758;SDS011;10539;53.686;9.158;2022-11-11T15:06:31;20.07;;;10.20;;
20758;SDS011;10539;53.686;9.158;2022-11-11T15:14:58;16.63;;;8.47;;
20758;SDS011;10539;53.686;9.158;2022-11-11T15:17:56;18.27;;;8.80;;
20758;SDS011;10539;53.686;9.158;2022-11-11T15:20:49;17.67;;;9.63;;
20758;SDS011;10539;53.686;9.158;2022-11-11T15:23:40;19.30;;;9.70;;
20758;SDS011;10539;53.686;9.158;2022-11-11T15:26:14;17.27;;;9.30;;
20758;SDS011;10539;53.686;9.158;2022-11-11T15:34:18;16.67;;;9.60;;
20758;SDS011;10539;53.686;9.158;2022-11-11T15:37:03;18.77;;;9.50;;
20758;SDS011;10539;53.686;9.158;2022-11-11T15:39:50;16.00;;;8.37;;
20758;SDS011;10539;53.686;9.158;2022-11-11T15:42:29;18.17;;;9.40;;
20758;SDS011;10539;53.686;9.158;2022-11-11T15:45:02;16.60;;;9.47;;
20758;SDS011;10539;53.686;9.158;2022-11-11T15:47:38;12.80;;;7.90;;
20758;SDS011;10539;53.686;9.158;2022-11-11T15:50:13;14.40;;;8.10;;
20758;SDS011;10539;53.686;9.158;2022-11-11T15:53:01;12.80;;;7.83;;
20758;SDS011;10539;53.686;9.158;2022-11-11T15:55:29;12.20;;;7.57;;
20758;SDS011;10539;53.686;9.158;2022-11-11T15:58:10;15.03;;;7.33;;
20758;SDS011;10539;53.686;9.158;2022-11-11T16:00:40;13.80;;;8.00;;
20758;SDS011;10539;53.686;9.158;2022-11-11T16:05:56;12.53;;;7.93;;
20758;SDS011;10539;53.686;9.158;2022-11-11T16:08:22;18.53;;;8.50;;
20758;SDS011;10539;53.686;9.158;2022-11-11T16:10:52;13.37;;;8.17;;
20758;SDS011;10539;53.686;9.158;2022-11-11T16:13:22;17.03;;;8.47;;
20758;SDS011;10539;53.686;9.158;2022-11-11T16:21:31;16.53;;;9.47;;
20758;SDS011;10539;53.686;9.158;2022-11-11T16:24:20;15.07;;;8.73;;
20758;SDS011;10539;53.686;9.158;2022-11-11T16:26:49;14.97;;;8.63;;
20758;SDS011;10539;53.686;9.158;2022-11-11T16:29:15;14.73;;;8.83;;
20758;SDS011;10539;53.686;9.158;2022-11-11T16:31:43;16.80;;;9.63;;
20758;SDS011;10539;53.686;9.158;2022-11-11T16:39:29;15.57;;;9.20;;
20758;SDS011;10539;53.686;9.158;2022-11-11T16:41:56;16.23;;;9.33;;
20758;SDS011;10539;53.686;9.158;2022-11-11T16:44:35;15.07;;;9.43;;
20758;SDS011;10539;53.686;9.158;2022-11-11T16:47:06;15.27;;;8.83;;
20758;SDS011;10539;53.686;9.158;2022-11-11T16:50:00;20.23;;;9.30;;
20758;SDS011;10539;53.686;9.158;2022-11-11T16:52:40;15.40;;;9.30;;
20758;SDS011;10539;53.686;9.158;2022-11-11T16:55:10;16.07;;;9.83;;
20758;SDS011;10539;53.686;9.158;2022-11-11T16:57:50;14.83;;;9.10;;
20758;SDS011;10539;53.686;9.158;2022-11-11T17:00:20;17.90;;;8.93;;
20758;SDS011;10539;53.686;9.158;2022-11-11T17:02:50;17.03;;;9.33;;
20758;SDS011;10539;53.686;9.158;2022-11-11T17:05:58;17.23;;;8.80;;
20758;SDS011;10539;53.686;9.158;2022-11-11T17:10:54;13.77;;;8.00;;
20758;SDS011;10539;53.686;9.158;2022-11-11T17:13:20;16.63;;;8.73;;
20758;SDS011;10539;53.686;9.158;2022-11-11T17:15:46;15.17;;;8.70;;